sensor_id;sensor_type;location;lat;lon;timestamp;temperature;humidity
4828;DHT22;2428;48.732;9.148;2023-02-05T00:01:39;3.60;99.90
4828;DHT22;2428;48.732;9.148;2023-02-05T00:04:05;3.60;99.90
4828;DHT22;2428;48.732;9.148;2023-02-05T00:06:30;3.60;99.90
4828;DHT22;2428;48.732;9.148;2023-02-05T00:08:56;3.60;99.90
4828;DHT22;2428;48.732;9.148;2023-02-05T00:11:23;3.60;99.90
4828;DHT22;2428;48.732;9.148;2023-02-05T00:13:48;3.60;99.90
4828;DHT22;2428;48.732;9.148;2023-02-05T00:16:16;3.60;99.90
4828;DHT22;2428;48.732;9.148;2023-02-05T00:18:43;3.60;99.90
4828;DHT22;2428;48.732;9.148;2023-02-05T00:21:09;3.60;99.90
4828;DHT22;2428;48.732;9.148;2023-02-05T00:23:36;3.60;99.90
4828;DHT22;2428;48.732;9.148;2023-02-05T00:26:03;3.60;99.90
4828;DHT22;2428;48.732;9.148;2023-02-05T00:28:31;3.60;99.90
4828;DHT22;2428;48.732;9.148;2023-02-05T00:30:57;3.60;99.90
4828;DHT22;2428;48.732;9.148;2023-02-05T00:33:23;3.60;99.90
4828;DHT22;2428;48.732;9.148;2023-02-05T00:35:48;3.60;99.90
4828;DHT22;2428;48.732;9.148;2023-02-05T00:38:14;3.60;99.90
4828;DHT22;2428;48.732;9.148;2023-02-05T00:40:39;3.70;99.90
4828;DHT22;2428;48.732;9.148;2023-02-05T00:43:05;3.70;99.90
4828;DHT22;2428;48.732;9.148;2023-02-05T00:45:30;3.70;99.90
4828;DHT22;2428;48.732;9.148;2023-02-05T00:48:05;3.70;99.90
4828;DHT22;2428;48.732;9.148;2023-02-05T00:50:32;3.70;99.90
4828;DHT22;2428;48.732;9.148;2023-02-05T00:52:58;3.70;99.90
4828;DHT22;2428;48.732;9.148;2023-02-05T00:55:24;3.70;99.90
4828;DHT22;2428;48.732;9.148;2023-02-05T00:57:49;3.70;99.90
4828;DHT22;2428;48.732;9.148;2023-02-05T01:00:15;3.70;99.90
4828;DHT22;2428;48.732;9.148;2023-02-05T01:02:41;3.70;99.90
4828;DHT22;2428;48.732;9.148;2023-02-05T01:05:07;3.70;99.90
4828;DHT22;2428;48.732;9.148;2023-02-05T01:07:33;3.70;99.90
4828;DHT22;2428;48.732;9.148;2023-02-05T01:09:58;3.70;99.90
4828;DHT22;2428;48.732;9.148;2023-02-05T01:12:24;3.70;99.90
4828;DHT22;2428;48.732;9.148;2023-02-05T01:14:50;3.70;99.90
4828;DHT22;2428;48.732;9.148;2023-02-05T01:17:16;3.70;99.90
4828;DHT22;2428;48.732;9.148;2023-02-05T01:19:41;3.70;99.90
4828;DHT22;2428;48.732;9.148;2023-02-05T01:22:07;3.60;99.90
4828;DHT22;2428;48.732;9.148;2023-02-05T01:24:33;3.60;99.90
4828;DHT22;2428;48.732;9.148;2023-02-05T01:26:58;3.50;99.90
4828;DHT22;2428;48.732;9.148;2023-02-05T01:29:25;3.40;99.90
4828;DHT22;2428;48.732;9.148;2023-02-05T01:31:51;3.40;99.90
4828;DHT22;2428;48.732;9.148;2023-02-05T01:34:16;3.40;99.90
4828;DHT22;2428;48.732;9.148;2023-02-05T01:36:42;3.40;99.90
4828;DHT22;2428;48.732;9.148;2023-02-05T01:39:08;3.40;99.90
4828;DHT22;2428;48.732;9.148;2023-02-05T01:41:33;3.40;99.90
4828;DHT22;2428;48.732;9.148;2023-02-05T01:44:12;3.40;99.90
4828;DHT22;2428;48.732;9.148;2023-02-05T01:46:43;3.40;99.90
4828;DHT22;2428;48.732;9.148;2023-02-05T01:49:45;3.40;99.90
4828;DHT22;2428;48.732;9.148;2023-02-05T01:52:07;3.40;99.90
4828;DHT22;2428;48.732;9.148;2023-02-05T01:54:36;3.40;99.90
4828;DHT22;2428;48.732;9.148;2023-02-05T01:57:07;3.40;99.90
4828;DHT22;2428;48.732;9.148;2023-02-05T01:59:36;3.40;99.90
4828;DHT22;2428;48.732;9.148;2023-02-05T02:02:03;3.40;99.90
4828;DHT22;2428;48.732;9.148;2023-02-05T02:04:49;3.40;99.90
4828;DHT22;2428;48.732;9.148;2023-02-05T02:07:19;3.30;99.90
4828;DHT22;2428;48.732;9.148;2023-02-05T02:09:46;3.30;99.90
4828;DHT22;2428;48.732;9.148;2023-02-05T02:12:15;3.20;99.90
4828;DHT22;2428;48.732;9.148;2023-02-05T02:14:46;3.20;99.90
4828;DHT22;2428;48.732;9.148;2023-02-05T02:17:15;3.20;99.90
4828;DHT22;2428;48.732;9.148;2023-02-05T02:27:36;3.20;99.90
4828;DHT22;2428;48.732;9.148;2023-02-05T02:30:13;3.20;99.90
4828;DHT22;2428;48.732;9.148;2023-02-05T02:32:57;3.20;99.90
4828;DHT22;2428;48.732;9.148;2023-02-05T02:38:26;3.20;99.90
4828;DHT22;2428;48.732;9.148;2023-02-05T02:40:59;3.10;99.90
4828;DHT22;2428;48.732;9.148;2023-02-05T02:43:42;3.10;99.90
4828;DHT22;2428;48.732;9.148;2023-02-05T02:48:51;3.20;99.90
4828;DHT22;2428;48.732;9.148;2023-02-05T02:51:19;3.10;99.90
4828;DHT22;2428;48.732;9.148;2023-02-05T02:53:48;3.10;99.90
4828;DHT22;2428;48.732;9.148;2023-02-05T02:56:16;3.10;99.90
4828;DHT22;2428;48.732;9.148;2023-02-05T02:59:02;3.00;99.90
4828;DHT22;2428;48.732;9.148;2023-02-05T03:01:29;3.00;99.90
4828;DHT22;2428;48.732;9.148;2023-02-05T03:04:01;3.00;99.90
4828;DHT22;2428;48.732;9.148;2023-02-05T03:06:30;2.90;99.90
4828;DHT22;2428;48.732;9.148;2023-02-05T03:09:02;2.90;99.90
4828;DHT22;2428;48.732;9.148;2023-02-05T03:11:30;3.00;99.90
4828;DHT22;2428;48.732;9.148;2023-02-05T03:13:56;3.00;99.90
4828;DHT22;2428;48.732;9.148;2023-02-05T03:16:25;3.00;99.90
4828;DHT22;2428;48.732;9.148;2023-02-05T03:18:51;3.00;99.90
4828;DHT22;2428;48.732;9.148;2023-02-05T03:21:24;3.00;99.90
4828;DHT22;2428;48.732;9.148;2023-02-05T03:23:52;3.00;99.90
4828;DHT22;2428;48.732;9.148;2023-02-05T03:26:31;3.00;99.90
4828;DHT22;2428;48.732;9.148;2023-02-05T03:28:59;3.10;99.90
4828;DHT22;2428;48.732;9.148;2023-02-05T03:42:37;3.20;99.90
4828;DHT22;2428;48.732;9.148;2023-02-05T03:51:12;3.20;99.90
4828;DHT22;2428;48.732;9.148;2023-02-05T03:56:19;3.20;99.90
4828;DHT22;2428;48.732;9.148;2023-02-05T03:58:48;3.10;99.90
4828;DHT22;2428;48.732;9.148;2023-02-05T04:01:16;3.10;99.90
4828;DHT22;2428;48.732;9.148;2023-02-05T04:03:42;3.00;99.90
4828;DHT22;2428;48.732;9.148;2023-02-05T04:06:08;3.00;99.90
4828;DHT22;2428;48.732;9.148;2023-02-05T04:08:34;3.00;99.90
4828;DHT22;2428;48.732;9.148;2023-02-05T04:10:59;3.00;99.90
4828;DHT22;2428;48.732;9.148;2023-02-05T04:13:25;3.00;99.90
4828;DHT22;2428;48.732;9.148;2023-02-05T04:15:51;2.90;99.90
4828;DHT22;2428;48.732;9.148;2023-02-05T04:18:17;2.90;99.90
4828;DHT22;2428;48.732;9.148;2023-02-05T04:20:42;2.90;99.90
4828;DHT22;2428;48.732;9.148;2023-02-05T04:23:08;2.90;99.90
4828;DHT22;2428;48.732;9.148;2023-02-05T04:25:37;2.90;99.90
4828;DHT22;2428;48.732;9.148;2023-02-05T04:28:04;2.90;99.90
4828;DHT22;2428;48.732;9.148;2023-02-05T04:30:31;2.90;99.90
4828;DHT22;2428;48.732;9.148;2023-02-05T04:32:57;2.90;99.90
4828;DHT22;2428;48.732;9.148;2023-02-05T04:35:23;2.80;99.90
4828;DHT22;2428;48.732;9.148;2023-02-05T04:37:49;2.80;99.90
4828;DHT22;2428;48.732;9.148;2023-02-05T04:40:14;2.80;99.90
4828;DHT22;2428;48.732;9.148;2023-02-05T04:42:40;2.80;99.90
4828;DHT22;2428;48.732;9.148;2023-02-05T04:45:06;2.80;99.90
4828;DHT22;2428;48.732;9.148;2023-02-05T04:47:32;2.80;99.90
4828;DHT22;2428;48.732;9.148;2023-02-05T04:49:57;2.80;99.90
4828;DHT22;2428;48.732;9.148;2023-02-05T04:52:23;2.70;99.90
4828;DHT22;2428;48.732;9.148;2023-02-05T04:54:49;2.70;99.90
4828;DHT22;2428;48.732;9.148;2023-02-05T04:57:14;2.70;99.90
4828;DHT22;2428;48.732;9.148;2023-02-05T04:59:40;2.70;99.90
4828;DHT22;2428;48.732;9.148;2023-02-05T05:02:06;2.60;99.90
4828;DHT22;2428;48.732;9.148;2023-02-05T05:04:31;2.70;99.90
4828;DHT22;2428;48.732;9.148;2023-02-05T05:06:57;2.70;99.90
4828;DHT22;2428;48.732;9.148;2023-02-05T05:09:23;2.60;99.90
4828;DHT22;2428;48.732;9.148;2023-02-05T05:11:53;2.60;99.90
4828;DHT22;2428;48.732;9.148;2023-02-05T05:14:19;2.60;99.90
4828;DHT22;2428;48.732;9.148;2023-02-05T05:16:45;2.70;99.90
4828;DHT22;2428;48.732;9.148;2023-02-05T05:19:11;2.60;99.90
4828;DHT22;2428;48.732;9.148;2023-02-05T05:21:37;2.70;99.90
4828;DHT22;2428;48.732;9.148;2023-02-05T05:24:02;2.70;99.90
4828;DHT22;2428;48.732;9.148;2023-02-05T05:26:28;2.70;99.90
4828;DHT22;2428;48.732;9.148;2023-02-05T05:28:55;2.70;99.90
4828;DHT22;2428;48.732;9.148;2023-02-05T05:31:21;2.80;99.90
4828;DHT22;2428;48.732;9.148;2023-02-05T05:33:47;2.80;99.90
4828;DHT22;2428;48.732;9.148;2023-02-05T05:36:13;2.80;99.90
4828;DHT22;2428;48.732;9.148;2023-02-05T05:38:39;2.80;99.90
4828;DHT22;2428;48.732;9.148;2023-02-05T05:41:05;2.80;99.90
4828;DHT22;2428;48.732;9.148;2023-02-05T05:43:51;2.80;99.90
4828;DHT22;2428;48.732;9.148;2023-02-05T05:46:24;2.80;99.90
4828;DHT22;2428;48.732;9.148;2023-02-05T05:48:55;2.90;99.90
4828;DHT22;2428;48.732;9.148;2023-02-05T05:51:22;2.90;99.90
4828;DHT22;2428;48.732;9.148;2023-02-05T05:53:49;2.90;99.90
4828;DHT22;2428;48.732;9.148;2023-02-05T05:56:15;2.90;99.90
4828;DHT22;2428;48.732;9.148;2023-02-05T05:58:41;2.80;99.90
4828;DHT22;2428;48.732;9.148;2023-02-05T06:01:07;2.80;99.90
4828;DHT22;2428;48.732;9.148;2023-02-05T06:03:33;2.80;99.90
4828;DHT22;2428;48.732;9.148;2023-02-05T06:06:00;2.60;99.90
4828;DHT22;2428;48.732;9.148;2023-02-05T06:08:26;2.60;99.90
4828;DHT22;2428;48.732;9.148;2023-02-05T06:10:52;2.50;99.90
4828;DHT22;2428;48.732;9.148;2023-02-05T06:13:17;2.50;99.90
4828;DHT22;2428;48.732;9.148;2023-02-05T06:15:43;2.40;99.90
4828;DHT22;2428;48.732;9.148;2023-02-05T06:18:08;2.40;99.90
4828;DHT22;2428;48.732;9.148;2023-02-05T06:20:34;2.50;99.90
4828;DHT22;2428;48.732;9.148;2023-02-05T06:22:59;2.50;99.90
4828;DHT22;2428;48.732;9.148;2023-02-05T06:25:25;2.60;99.90
4828;DHT22;2428;48.732;9.148;2023-02-05T06:27:50;2.60;99.90
4828;DHT22;2428;48.732;9.148;2023-02-05T06:30:16;2.60;99.90
4828;DHT22;2428;48.732;9.148;2023-02-05T06:32:42;2.60;99.90
4828;DHT22;2428;48.732;9.148;2023-02-05T06:35:07;2.60;99.90
4828;DHT22;2428;48.732;9.148;2023-02-05T06:37:33;2.60;99.90
4828;DHT22;2428;48.732;9.148;2023-02-05T06:39:58;2.60;99.90
4828;DHT22;2428;48.732;9.148;2023-02-05T06:42:24;2.60;99.90
4828;DHT22;2428;48.732;9.148;2023-02-05T06:44:50;2.70;99.90
4828;DHT22;2428;48.732;9.148;2023-02-05T06:47:16;2.70;99.90
4828;DHT22;2428;48.732;9.148;2023-02-05T06:49:42;2.70;99.90
4828;DHT22;2428;48.732;9.148;2023-02-05T06:52:07;2.70;99.90
4828;DHT22;2428;48.732;9.148;2023-02-05T06:54:33;2.80;99.90
4828;DHT22;2428;48.732;9.148;2023-02-05T06:56:58;2.80;99.90
4828;DHT22;2428;48.732;9.148;2023-02-05T06:59:24;2.80;99.90
4828;DHT22;2428;48.732;9.148;2023-02-05T07:01:50;2.90;99.90
4828;DHT22;2428;48.732;9.148;2023-02-05T07:04:15;2.90;99.90
4828;DHT22;2428;48.732;9.148;2023-02-05T07:06:41;2.90;99.90
4828;DHT22;2428;48.732;9.148;2023-02-05T07:09:07;2.90;99.90
4828;DHT22;2428;48.732;9.148;2023-02-05T07:11:32;2.90;99.90
4828;DHT22;2428;48.732;9.148;2023-02-05T07:14:01;2.90;99.90
4828;DHT22;2428;48.732;9.148;2023-02-05T07:16:28;2.90;99.90
4828;DHT22;2428;48.732;9.148;2023-02-05T07:18:54;3.00;99.90
4828;DHT22;2428;48.732;9.148;2023-02-05T07:21:19;3.00;99.90
4828;DHT22;2428;48.732;9.148;2023-02-05T07:23:45;2.90;99.90
4828;DHT22;2428;48.732;9.148;2023-02-05T07:26:13;3.00;99.90
4828;DHT22;2428;48.732;9.148;2023-02-05T07:28:40;3.00;99.90
4828;DHT22;2428;48.732;9.148;2023-02-05T07:31:09;3.10;99.90
4828;DHT22;2428;48.732;9.148;2023-02-05T07:33:35;3.10;99.90
4828;DHT22;2428;48.732;9.148;2023-02-05T07:36:06;3.10;99.90
4828;DHT22;2428;48.732;9.148;2023-02-05T07:38:33;3.10;99.90
4828;DHT22;2428;48.732;9.148;2023-02-05T07:41:03;3.20;99.90
4828;DHT22;2428;48.732;9.148;2023-02-05T07:43:28;3.20;99.90
4828;DHT22;2428;48.732;9.148;2023-02-05T07:45:59;3.20;99.90
4828;DHT22;2428;48.732;9.148;2023-02-05T07:48:25;3.20;99.90
4828;DHT22;2428;48.732;9.148;2023-02-05T07:50:51;3.20;99.90
4828;DHT22;2428;48.732;9.148;2023-02-05T07:53:16;3.20;99.90
4828;DHT22;2428;48.732;9.148;2023-02-05T07:55:42;3.20;99.90
4828;DHT22;2428;48.732;9.148;2023-02-05T07:58:07;3.20;99.90
4828;DHT22;2428;48.732;9.148;2023-02-05T08:00:33;3.20;99.90
4828;DHT22;2428;48.732;9.148;2023-02-05T08:02:59;3.20;99.90
4828;DHT22;2428;48.732;9.148;2023-02-05T08:05:25;3.30;99.90
4828;DHT22;2428;48.732;9.148;2023-02-05T08:07:50;3.30;99.90
4828;DHT22;2428;48.732;9.148;2023-02-05T08:10:16;3.30;99.90
4828;DHT22;2428;48.732;9.148;2023-02-05T08:12:41;3.30;99.90
4828;DHT22;2428;48.732;9.148;2023-02-05T08:15:07;3.30;99.90
4828;DHT22;2428;48.732;9.148;2023-02-05T08:17:33;3.30;99.90
4828;DHT22;2428;48.732;9.148;2023-02-05T08:19:59;3.30;99.90
4828;DHT22;2428;48.732;9.148;2023-02-05T08:22:32;3.30;99.90
4828;DHT22;2428;48.732;9.148;2023-02-05T08:24:58;3.30;99.90
4828;DHT22;2428;48.732;9.148;2023-02-05T08:27:24;3.40;99.90
4828;DHT22;2428;48.732;9.148;2023-02-05T08:29:49;3.40;99.90
4828;DHT22;2428;48.732;9.148;2023-02-05T08:32:15;3.40;99.90
4828;DHT22;2428;48.732;9.148;2023-02-05T08:34:40;3.40;99.90
4828;DHT22;2428;48.732;9.148;2023-02-05T08:37:06;3.30;99.90
4828;DHT22;2428;48.732;9.148;2023-02-05T08:39:31;3.40;99.90
4828;DHT22;2428;48.732;9.148;2023-02-05T08:41:57;3.40;99.90
4828;DHT22;2428;48.732;9.148;2023-02-05T08:44:23;3.40;99.90
4828;DHT22;2428;48.732;9.148;2023-02-05T08:46:49;3.50;99.90
4828;DHT22;2428;48.732;9.148;2023-02-05T08:49:14;3.40;99.90
4828;DHT22;2428;48.732;9.148;2023-02-05T08:51:41;3.40;99.90
4828;DHT22;2428;48.732;9.148;2023-02-05T08:54:07;3.40;99.90
4828;DHT22;2428;48.732;9.148;2023-02-05T08:56:41;3.40;99.90
4828;DHT22;2428;48.732;9.148;2023-02-05T08:59:08;3.50;99.90
4828;DHT22;2428;48.732;9.148;2023-02-05T09:01:34;3.50;99.90
4828;DHT22;2428;48.732;9.148;2023-02-05T09:04:02;3.50;99.90
4828;DHT22;2428;48.732;9.148;2023-02-05T09:06:28;3.50;99.90
4828;DHT22;2428;48.732;9.148;2023-02-05T09:08:54;3.60;99.90
4828;DHT22;2428;48.732;9.148;2023-02-05T09:11:21;3.60;99.90
4828;DHT22;2428;48.732;9.148;2023-02-05T09:13:47;3.60;99.90
4828;DHT22;2428;48.732;9.148;2023-02-05T09:16:12;3.70;99.90
4828;DHT22;2428;48.732;9.148;2023-02-05T09:18:38;3.70;99.90
4828;DHT22;2428;48.732;9.148;2023-02-05T09:21:08;3.70;99.90
4828;DHT22;2428;48.732;9.148;2023-02-05T09:23:34;3.70;99.90
4828;DHT22;2428;48.732;9.148;2023-02-05T09:26:00;3.80;99.90
4828;DHT22;2428;48.732;9.148;2023-02-05T09:28:26;3.80;99.90
4828;DHT22;2428;48.732;9.148;2023-02-05T09:30:51;3.80;99.90
4828;DHT22;2428;48.732;9.148;2023-02-05T09:33:17;3.90;99.90
4828;DHT22;2428;48.732;9.148;2023-02-05T09:35:43;3.80;99.90
4828;DHT22;2428;48.732;9.148;2023-02-05T09:38:12;3.80;99.90
4828;DHT22;2428;48.732;9.148;2023-02-05T09:40:57;3.90;99.90
4828;DHT22;2428;48.732;9.148;2023-02-05T09:49:36;3.90;99.90
4828;DHT22;2428;48.732;9.148;2023-02-05T09:54:38;3.80;99.90
4828;DHT22;2428;48.732;9.148;2023-02-05T09:57:09;3.80;99.90
4828;DHT22;2428;48.732;9.148;2023-02-05T09:59:36;3.70;99.90
4828;DHT22;2428;48.732;9.148;2023-02-05T10:02:32;3.80;99.90
4828;DHT22;2428;48.732;9.148;2023-02-05T10:04:59;3.80;99.90
4828;DHT22;2428;48.732;9.148;2023-02-05T10:10:22;3.70;99.90
4828;DHT22;2428;48.732;9.148;2023-02-05T10:18:24;3.80;99.90
4828;DHT22;2428;48.732;9.148;2023-02-05T10:26:54;3.80;99.90
4828;DHT22;2428;48.732;9.148;2023-02-05T10:32:22;3.80;99.90
4828;DHT22;2428;48.732;9.148;2023-02-05T10:34:59;3.90;99.90
4828;DHT22;2428;48.732;9.148;2023-02-05T10:37:43;3.90;99.90
4828;DHT22;2428;48.732;9.148;2023-02-05T10:40:15;3.90;99.90
4828;DHT22;2428;48.732;9.148;2023-02-05T10:42:56;4.00;99.90
4828;DHT22;2428;48.732;9.148;2023-02-05T10:45:26;4.10;99.90
4828;DHT22;2428;48.732;9.148;2023-02-05T10:53:18;4.10;99.90
4828;DHT22;2428;48.732;9.148;2023-02-05T10:55:44;4.10;99.90
4828;DHT22;2428;48.732;9.148;2023-02-05T11:00:49;4.20;99.90
4828;DHT22;2428;48.732;9.148;2023-02-05T11:03:18;4.30;99.90
4828;DHT22;2428;48.732;9.148;2023-02-05T11:05:48;4.30;99.90
4828;DHT22;2428;48.732;9.148;2023-02-05T11:08:39;4.40;99.90
4828;DHT22;2428;48.732;9.148;2023-02-05T11:11:06;4.40;99.90
4828;DHT22;2428;48.732;9.148;2023-02-05T11:13:35;4.40;99.90
4828;DHT22;2428;48.732;9.148;2023-02-05T11:16:05;4.40;99.90
4828;DHT22;2428;48.732;9.148;2023-02-05T11:18:39;4.40;99.90
4828;DHT22;2428;48.732;9.148;2023-02-05T11:21:06;4.50;99.90
4828;DHT22;2428;48.732;9.148;2023-02-05T11:23:34;4.40;99.90
4828;DHT22;2428;48.732;9.148;2023-02-05T11:28:44;4.30;99.90
4828;DHT22;2428;48.732;9.148;2023-02-05T11:31:28;4.30;99.90
4828;DHT22;2428;48.732;9.148;2023-02-05T11:34:13;4.20;99.90
4828;DHT22;2428;48.732;9.148;2023-02-05T11:36:54;4.30;99.90
4828;DHT22;2428;48.732;9.148;2023-02-05T11:39:40;4.30;99.90
4828;DHT22;2428;48.732;9.148;2023-02-05T11:42:18;4.40;99.90
4828;DHT22;2428;48.732;9.148;2023-02-05T11:44:56;4.30;99.90
4828;DHT22;2428;48.732;9.148;2023-02-05T11:47:32;4.30;99.90
4828;DHT22;2428;48.732;9.148;2023-02-05T11:49:59;4.30;99.90
4828;DHT22;2428;48.732;9.148;2023-02-05T11:52:31;4.30;99.90
4828;DHT22;2428;48.732;9.148;2023-02-05T11:54:58;4.40;99.90
4828;DHT22;2428;48.732;9.148;2023-02-05T11:57:33;4.30;99.90
4828;DHT22;2428;48.732;9.148;2023-02-05T12:10:05;4.40;99.90
4828;DHT22;2428;48.732;9.148;2023-02-05T12:20:28;4.30;99.90
4828;DHT22;2428;48.732;9.148;2023-02-05T12:26:21;4.50;99.90
4828;DHT22;2428;48.732;9.148;2023-02-05T12:29:18;4.40;99.90
4828;DHT22;2428;48.732;9.148;2023-02-05T12:32:15;4.40;99.90
4828;DHT22;2428;48.732;9.148;2023-02-05T12:37:36;4.30;99.90
4828;DHT22;2428;48.732;9.148;2023-02-05T12:40:37;4.30;99.90
4828;DHT22;2428;48.732;9.148;2023-02-05T12:43:30;4.30;99.90
4828;DHT22;2428;48.732;9.148;2023-02-05T12:49:10;4.40;99.90
4828;DHT22;2428;48.732;9.148;2023-02-05T12:57:12;4.30;99.90
4828;DHT22;2428;48.732;9.148;2023-02-05T12:59:51;4.30;99.90
4828;DHT22;2428;48.732;9.148;2023-02-05T13:05:05;4.30;99.90
4828;DHT22;2428;48.732;9.148;2023-02-05T13:07:37;4.40;99.90
4828;DHT22;2428;48.732;9.148;2023-02-05T13:10:11;4.40;99.90
4828;DHT22;2428;48.732;9.148;2023-02-05T13:12:41;4.40;99.90
4828;DHT22;2428;48.732;9.148;2023-02-05T13:15:15;4.50;99.90
4828;DHT22;2428;48.732;9.148;2023-02-05T13:18:04;4.50;99.90
4828;DHT22;2428;48.732;9.148;2023-02-05T13:20:48;4.50;99.90
4828;DHT22;2428;48.732;9.148;2023-02-05T13:23:34;4.30;99.90
4828;DHT22;2428;48.732;9.148;2023-02-05T13:26:33;4.20;99.90
4828;DHT22;2428;48.732;9.148;2023-02-05T13:29:20;4.20;99.90
4828;DHT22;2428;48.732;9.148;2023-02-05T13:32:03;4.20;99.90
4828;DHT22;2428;48.732;9.148;2023-02-05T13:34:30;4.10;99.90
4828;DHT22;2428;48.732;9.148;2023-02-05T13:58:56;3.70;99.90
4828;DHT22;2428;48.732;9.148;2023-02-05T14:01:26;3.60;99.90
4828;DHT22;2428;48.732;9.148;2023-02-05T14:03:57;3.60;99.90
4828;DHT22;2428;48.732;9.148;2023-02-05T14:06:27;3.60;99.90
4828;DHT22;2428;48.732;9.148;2023-02-05T14:09:21;3.50;99.90
4828;DHT22;2428;48.732;9.148;2023-02-05T14:12:00;3.40;99.90
4828;DHT22;2428;48.732;9.148;2023-02-05T14:16:57;3.40;99.90
4828;DHT22;2428;48.732;9.148;2023-02-05T14:22:04;3.40;99.90
4828;DHT22;2428;48.732;9.148;2023-02-05T14:24:38;3.40;99.90
4828;DHT22;2428;48.732;9.148;2023-02-05T14:27:21;3.30;99.90
4828;DHT22;2428;48.732;9.148;2023-02-05T14:35:37;3.40;99.90
4828;DHT22;2428;48.732;9.148;2023-02-05T14:38:36;3.30;99.90
4828;DHT22;2428;48.732;9.148;2023-02-05T14:41:12;3.10;99.90
4828;DHT22;2428;48.732;9.148;2023-02-05T14:43:42;3.10;99.90
4828;DHT22;2428;48.732;9.148;2023-02-05T14:48:46;3.00;99.90
4828;DHT22;2428;48.732;9.148;2023-02-05T14:53:53;3.10;99.90
4828;DHT22;2428;48.732;9.148;2023-02-05T14:56:40;3.10;99.90
4828;DHT22;2428;48.732;9.148;2023-02-05T14:59:30;2.90;99.90
4828;DHT22;2428;48.732;9.148;2023-02-05T15:02:00;2.90;99.90
4828;DHT22;2428;48.732;9.148;2023-02-05T15:06:58;3.00;99.90
4828;DHT22;2428;48.732;9.148;2023-02-05T15:09:42;2.90;99.90
4828;DHT22;2428;48.732;9.148;2023-02-05T15:15:35;3.00;99.90
4828;DHT22;2428;48.732;9.148;2023-02-05T15:21:05;3.10;99.90
4828;DHT22;2428;48.732;9.148;2023-02-05T15:23:39;3.10;99.90
4828;DHT22;2428;48.732;9.148;2023-02-05T15:31:46;3.10;99.90
4828;DHT22;2428;48.732;9.148;2023-02-05T15:36:46;3.10;99.90
4828;DHT22;2428;48.732;9.148;2023-02-05T15:39:22;3.10;99.90
4828;DHT22;2428;48.732;9.148;2023-02-05T15:41:52;3.10;99.90
4828;DHT22;2428;48.732;9.148;2023-02-05T15:44:26;3.10;99.90
4828;DHT22;2428;48.732;9.148;2023-02-05T15:46:52;3.10;99.90
4828;DHT22;2428;48.732;9.148;2023-02-05T15:49:21;3.10;99.90
4828;DHT22;2428;48.732;9.148;2023-02-05T15:51:50;3.20;99.90
4828;DHT22;2428;48.732;9.148;2023-02-05T15:54:18;3.10;99.90
4828;DHT22;2428;48.732;9.148;2023-02-05T15:56:50;3.10;99.90
4828;DHT22;2428;48.732;9.148;2023-02-05T15:59:28;3.10;99.90
4828;DHT22;2428;48.732;9.148;2023-02-05T16:02:28;3.10;99.90
4828;DHT22;2428;48.732;9.148;2023-02-05T16:07:34;3.00;99.90
4828;DHT22;2428;48.732;9.148;2023-02-05T16:10:13;3.10;99.90
4828;DHT22;2428;48.732;9.148;2023-02-05T16:12:39;3.10;99.90
4828;DHT22;2428;48.732;9.148;2023-02-05T16:15:06;3.00;99.90
4828;DHT22;2428;48.732;9.148;2023-02-05T16:17:38;3.00;99.90
4828;DHT22;2428;48.732;9.148;2023-02-05T16:20:23;3.00;99.90
4828;DHT22;2428;48.732;9.148;2023-02-05T16:22:55;3.00;99.90
4828;DHT22;2428;48.732;9.148;2023-02-05T16:27:49;3.00;99.90
4828;DHT22;2428;48.732;9.148;2023-02-05T16:30:40;3.00;99.90
4828;DHT22;2428;48.732;9.148;2023-02-05T16:33:34;3.00;99.90
4828;DHT22;2428;48.732;9.148;2023-02-05T16:35:59;3.00;99.90
4828;DHT22;2428;48.732;9.148;2023-02-05T16:38:25;3.00;99.90
4828;DHT22;2428;48.732;9.148;2023-02-05T16:40:54;3.00;99.90
4828;DHT22;2428;48.732;9.148;2023-02-05T16:51:02;2.90;99.90
4828;DHT22;2428;48.732;9.148;2023-02-05T16:53:33;2.90;99.90
4828;DHT22;2428;48.732;9.148;2023-02-05T16:56:20;2.90;99.90
4828;DHT22;2428;48.732;9.148;2023-02-05T16:58:49;3.00;99.90
4828;DHT22;2428;48.732;9.148;2023-02-05T17:01:22;3.00;99.90
4828;DHT22;2428;48.732;9.148;2023-02-05T17:03:49;3.00;99.90
4828;DHT22;2428;48.732;9.148;2023-02-05T17:06:16;3.00;99.90
4828;DHT22;2428;48.732;9.148;2023-02-05T17:08:44;3.00;99.90
4828;DHT22;2428;48.732;9.148;2023-02-05T17:16:46;2.90;99.90
4828;DHT22;2428;48.732;9.148;2023-02-05T17:19:26;3.00;99.90
4828;DHT22;2428;48.732;9.148;2023-02-05T17:22:17;3.00;99.90
4828;DHT22;2428;48.732;9.148;2023-02-05T17:24:48;3.00;99.90
4828;DHT22;2428;48.732;9.148;2023-02-05T17:27:29;3.00;99.90
4828;DHT22;2428;48.732;9.148;2023-02-05T17:29:55;3.00;99.90
4828;DHT22;2428;48.732;9.148;2023-02-05T17:32:21;3.00;99.90
4828;DHT22;2428;48.732;9.148;2023-02-05T17:34:47;2.90;99.90
4828;DHT22;2428;48.732;9.148;2023-02-05T17:37:13;2.90;99.90
4828;DHT22;2428;48.732;9.148;2023-02-05T17:39:39;3.00;99.90
4828;DHT22;2428;48.732;9.148;2023-02-05T17:42:06;3.00;99.90
4828;DHT22;2428;48.732;9.148;2023-02-05T17:44:40;3.10;99.90
4828;DHT22;2428;48.732;9.148;2023-02-05T17:47:07;3.10;99.90
4828;DHT22;2428;48.732;9.148;2023-02-05T17:49:33;3.20;99.90
4828;DHT22;2428;48.732;9.148;2023-02-05T17:51:59;3.20;99.90
4828;DHT22;2428;48.732;9.148;2023-02-05T17:54:25;3.10;99.90
4828;DHT22;2428;48.732;9.148;2023-02-05T17:56:53;3.10;99.90
4828;DHT22;2428;48.732;9.148;2023-02-05T17:59:21;3.10;99.90
4828;DHT22;2428;48.732;9.148;2023-02-05T18:01:48;3.10;99.90
4828;DHT22;2428;48.732;9.148;2023-02-05T18:04:14;3.10;99.90
4828;DHT22;2428;48.732;9.148;2023-02-05T18:06:40;3.20;99.90
4828;DHT22;2428;48.732;9.148;2023-02-05T18:09:07;3.20;99.90
4828;DHT22;2428;48.732;9.148;2023-02-05T18:11:33;3.20;99.90
4828;DHT22;2428;48.732;9.148;2023-02-05T18:13:59;3.30;99.90
4828;DHT22;2428;48.732;9.148;2023-02-05T18:16:25;3.20;99.90
4828;DHT22;2428;48.732;9.148;2023-02-05T18:18:51;3.30;99.90
4828;DHT22;2428;48.732;9.148;2023-02-05T18:21:16;3.30;99.90
4828;DHT22;2428;48.732;9.148;2023-02-05T18:23:42;3.30;99.90
4828;DHT22;2428;48.732;9.148;2023-02-05T18:26:08;3.40;99.90
4828;DHT22;2428;48.732;9.148;2023-02-05T18:28:34;3.40;99.90
4828;DHT22;2428;48.732;9.148;2023-02-05T18:31:05;3.40;99.90
4828;DHT22;2428;48.732;9.148;2023-02-05T18:33:31;3.40;99.90
4828;DHT22;2428;48.732;9.148;2023-02-05T18:36:01;3.40;99.90
4828;DHT22;2428;48.732;9.148;2023-02-05T18:38:28;3.40;99.90
4828;DHT22;2428;48.732;9.148;2023-02-05T18:40:53;3.40;99.90
4828;DHT22;2428;48.732;9.148;2023-02-05T18:43:19;3.40;99.90
4828;DHT22;2428;48.732;9.148;2023-02-05T18:45:45;3.40;99.90
4828;DHT22;2428;48.732;9.148;2023-02-05T18:48:10;3.40;99.90
4828;DHT22;2428;48.732;9.148;2023-02-05T18:50:36;3.40;99.90
4828;DHT22;2428;48.732;9.148;2023-02-05T18:53:02;3.40;99.90
4828;DHT22;2428;48.732;9.148;2023-02-05T18:55:27;3.30;99.90
4828;DHT22;2428;48.732;9.148;2023-02-05T18:57:59;3.30;99.90
4828;DHT22;2428;48.732;9.148;2023-02-05T19:00:25;3.30;99.90
4828;DHT22;2428;48.732;9.148;2023-02-05T19:02:50;3.30;99.90
4828;DHT22;2428;48.732;9.148;2023-02-05T19:05:16;3.30;99.90
4828;DHT22;2428;48.732;9.148;2023-02-05T19:07:41;3.30;99.90
4828;DHT22;2428;48.732;9.148;2023-02-05T19:10:09;3.20;99.90
4828;DHT22;2428;48.732;9.148;2023-02-05T19:12:34;3.10;99.90
4828;DHT22;2428;48.732;9.148;2023-02-05T19:15:00;3.20;99.90
4828;DHT22;2428;48.732;9.148;2023-02-05T19:17:25;3.20;99.90
4828;DHT22;2428;48.732;9.148;2023-02-05T19:19:52;3.20;99.90
4828;DHT22;2428;48.732;9.148;2023-02-05T19:22:20;3.20;99.90
4828;DHT22;2428;48.732;9.148;2023-02-05T19:24:46;3.20;99.90
4828;DHT22;2428;48.732;9.148;2023-02-05T19:27:11;3.20;99.90
4828;DHT22;2428;48.732;9.148;2023-02-05T19:29:37;3.20;99.90
4828;DHT22;2428;48.732;9.148;2023-02-05T19:32:06;3.20;99.90